Belvedere, California
Current Conditions -  °F | °C
As of 7:53 PM on Tuesday 25 Nov 2014 (Local Time) from KOAK Reporting Station
Few Clouds Few Clouds  
Wind Chill: 56°   Ceiling: Unl
Heat Index: 56°   Visibility: 10mi
Dew Point: 45°   Wind: 7mph
Humidity: 67%   Direction: 90°E
Pressure: 30.35"   Gusts: NA
Location:  37.8931°N, 122.472°W
Report Text: KOAK 260353Z 09006KT 10SM FEW200 13/07 A3035 RMK AO2 SLP278 T01330072
Loading
Personal Weather Stations






























Interactive Weather Map New forecast layout! Learn more

10-Day Weather Forecast

Advertisements
Track Severe Weather on mobile